sensor_id;sensor_type;location;lat;lon;timestamp;P1;durP1;ratioP1;P2;durP2;ratioP2
3274;SDS011;1649;53.672;10.064;2022-08-16T00:02:02;14.23;;;11.60;;
3274;SDS011;1649;53.672;10.064;2022-08-16T00:04:28;12.77;;;11.27;;
3274;SDS011;1649;53.672;10.064;2022-08-16T00:06:54;12.53;;;11.13;;
3274;SDS011;1649;53.672;10.064;2022-08-16T00:09:20;13.37;;;10.93;;
3274;SDS011;1649;53.672;10.064;2022-08-16T00:11:46;14.23;;;10.60;;
3274;SDS011;1649;53.672;10.064;2022-08-16T00:14:14;14.27;;;11.37;;
3274;SDS011;1649;53.672;10.064;2022-08-16T00:16:43;11.33;;;10.10;;
3274;SDS011;1649;53.672;10.064;2022-08-16T00:19:09;13.40;;;10.83;;
3274;SDS011;1649;53.672;10.064;2022-08-16T00:21:35;13.47;;;11.43;;
3274;SDS011;1649;53.672;10.064;2022-08-16T00:24:01;13.37;;;11.43;;
3274;SDS011;1649;53.672;10.064;2022-08-16T00:26:26;12.70;;;10.87;;
3274;SDS011;1649;53.672;10.064;2022-08-16T00:28:52;12.40;;;10.50;;
3274;SDS011;1649;53.672;10.064;2022-08-16T00:31:18;13.80;;;11.23;;
3274;SDS011;1649;53.672;10.064;2022-08-16T00:33:43;13.90;;;12.47;;
3274;SDS011;1649;53.672;10.064;2022-08-16T00:36:09;14.50;;;12.53;;
3274;SDS011;1649;53.672;10.064;2022-08-16T00:38:34;14.63;;;12.50;;
3274;SDS011;1649;53.672;10.064;2022-08-16T00:41:00;17.07;;;13.80;;
3274;SDS011;1649;53.672;10.064;2022-08-16T00:43:27;16.50;;;14.13;;
3274;SDS011;1649;53.672;10.064;2022-08-16T00:46:02;17.90;;;14.50;;
3274;SDS011;1649;53.672;10.064;2022-08-16T00:48:36;16.93;;;14.93;;
3274;SDS011;1649;53.672;10.064;2022-08-16T00:51:03;17.30;;;14.43;;
3274;SDS011;1649;53.672;10.064;2022-08-16T00:53:29;18.57;;;16.57;;
3274;SDS011;1649;53.672;10.064;2022-08-16T00:55:56;24.37;;;17.83;;
3274;SDS011;1649;53.672;10.064;2022-08-16T00:58:25;26.47;;;19.60;;
3274;SDS011;1649;53.672;10.064;2022-08-16T01:00:53;22.80;;;18.57;;
3274;SDS011;1649;53.672;10.064;2022-08-16T01:03:19;25.13;;;21.10;;
3274;SDS011;1649;53.672;10.064;2022-08-16T01:05:47;24.20;;;19.30;;
3274;SDS011;1649;53.672;10.064;2022-08-16T01:08:14;23.80;;;20.20;;
3274;SDS011;1649;53.672;10.064;2022-08-16T01:10:42;25.43;;;21.33;;
3274;SDS011;1649;53.672;10.064;2022-08-16T01:13:09;24.93;;;21.67;;
3274;SDS011;1649;53.672;10.064;2022-08-16T01:15:38;25.17;;;21.07;;
3274;SDS011;1649;53.672;10.064;2022-08-16T01:18:08;22.93;;;19.57;;
3274;SDS011;1649;53.672;10.064;2022-08-16T01:20:37;24.43;;;18.70;;
3274;SDS011;1649;53.672;10.064;2022-08-16T01:23:12;21.83;;;19.00;;
3274;SDS011;1649;53.672;10.064;2022-08-16T01:25:43;22.83;;;20.23;;
3274;SDS011;1649;53.672;10.064;2022-08-16T01:28:12;22.70;;;19.87;;
3274;SDS011;1649;53.672;10.064;2022-08-16T01:30:41;23.90;;;20.80;;
3274;SDS011;1649;53.672;10.064;2022-08-16T01:33:10;25.30;;;21.30;;
3274;SDS011;1649;53.672;10.064;2022-08-16T01:35:37;24.80;;;21.50;;
3274;SDS011;1649;53.672;10.064;2022-08-16T01:38:20;24.43;;;21.13;;
3274;SDS011;1649;53.672;10.064;2022-08-16T01:41:02;22.90;;;20.47;;
3274;SDS011;1649;53.672;10.064;2022-08-16T01:43:32;24.63;;;21.20;;
3274;SDS011;1649;53.672;10.064;2022-08-16T01:46:01;23.40;;;20.90;;
3274;SDS011;1649;53.672;10.064;2022-08-16T01:48:29;25.40;;;21.30;;
3274;SDS011;1649;53.672;10.064;2022-08-16T01:50:56;23.53;;;20.67;;
3274;SDS011;1649;53.672;10.064;2022-08-16T01:53:23;27.23;;;22.73;;
3274;SDS011;1649;53.672;10.064;2022-08-16T01:55:50;24.70;;;21.67;;
3274;SDS011;1649;53.672;10.064;2022-08-16T01:58:15;25.33;;;21.53;;
3274;SDS011;1649;53.672;10.064;2022-08-16T02:00:42;27.67;;;22.23;;
3274;SDS011;1649;53.672;10.064;2022-08-16T02:03:09;25.90;;;22.53;;
3274;SDS011;1649;53.672;10.064;2022-08-16T02:05:34;27.43;;;22.27;;
3274;SDS011;1649;53.672;10.064;2022-08-16T02:08:01;26.10;;;22.43;;
3274;SDS011;1649;53.672;10.064;2022-08-16T02:10:28;25.73;;;22.93;;
3274;SDS011;1649;53.672;10.064;2022-08-16T02:12:54;26.00;;;22.03;;
3274;SDS011;1649;53.672;10.064;2022-08-16T02:15:21;28.50;;;22.70;;
3274;SDS011;1649;53.672;10.064;2022-08-16T02:17:49;25.20;;;20.77;;
3274;SDS011;1649;53.672;10.064;2022-08-16T02:20:15;23.93;;;19.37;;
3274;SDS011;1649;53.672;10.064;2022-08-16T02:22:41;23.30;;;20.80;;
3274;SDS011;1649;53.672;10.064;2022-08-16T02:25:08;25.70;;;21.33;;
3274;SDS011;1649;53.672;10.064;2022-08-16T02:27:38;23.63;;;19.50;;
3274;SDS011;1649;53.672;10.064;2022-08-16T02:30:05;24.37;;;21.77;;
3274;SDS011;1649;53.672;10.064;2022-08-16T02:32:33;22.77;;;19.17;;
3274;SDS011;1649;53.672;10.064;2022-08-16T02:34:59;23.83;;;20.37;;
3274;SDS011;1649;53.672;10.064;2022-08-16T02:37:24;22.83;;;20.33;;
3274;SDS011;1649;53.672;10.064;2022-08-16T02:39:50;22.23;;;19.47;;
3274;SDS011;1649;53.672;10.064;2022-08-16T02:42:15;22.20;;;19.80;;
3274;SDS011;1649;53.672;10.064;2022-08-16T02:44:43;23.93;;;18.67;;
3274;SDS011;1649;53.672;10.064;2022-08-16T02:47:08;22.20;;;19.27;;
3274;SDS011;1649;53.672;10.064;2022-08-16T02:49:34;25.07;;;20.37;;
3274;SDS011;1649;53.672;10.064;2022-08-16T02:52:00;23.93;;;21.20;;
3274;SDS011;1649;53.672;10.064;2022-08-16T02:54:25;23.70;;;18.40;;
3274;SDS011;1649;53.672;10.064;2022-08-16T02:56:51;23.20;;;20.03;;
3274;SDS011;1649;53.672;10.064;2022-08-16T02:59:16;24.73;;;19.93;;
3274;SDS011;1649;53.672;10.064;2022-08-16T03:01:42;21.87;;;19.33;;
3274;SDS011;1649;53.672;10.064;2022-08-16T03:04:07;29.00;;;21.23;;
3274;SDS011;1649;53.672;10.064;2022-08-16T03:06:33;23.10;;;20.10;;
3274;SDS011;1649;53.672;10.064;2022-08-16T03:08:59;24.70;;;22.00;;
3274;SDS011;1649;53.672;10.064;2022-08-16T03:11:24;25.40;;;21.07;;
3274;SDS011;1649;53.672;10.064;2022-08-16T03:13:51;25.13;;;22.47;;
3274;SDS011;1649;53.672;10.064;2022-08-16T03:16:19;25.20;;;22.50;;
3274;SDS011;1649;53.672;10.064;2022-08-16T03:18:47;25.10;;;22.23;;
3274;SDS011;1649;53.672;10.064;2022-08-16T03:21:12;26.53;;;22.60;;
3274;SDS011;1649;53.672;10.064;2022-08-16T03:23:39;26.93;;;21.60;;
3274;SDS011;1649;53.672;10.064;2022-08-16T03:26:04;28.87;;;23.67;;
3274;SDS011;1649;53.672;10.064;2022-08-16T03:28:30;26.30;;;23.50;;
3274;SDS011;1649;53.672;10.064;2022-08-16T03:30:56;27.80;;;23.37;;
3274;SDS011;1649;53.672;10.064;2022-08-16T03:33:22;23.93;;;20.97;;
3274;SDS011;1649;53.672;10.064;2022-08-16T03:35:48;27.90;;;24.30;;
3274;SDS011;1649;53.672;10.064;2022-08-16T03:38:14;32.50;;;25.17;;
3274;SDS011;1649;53.672;10.064;2022-08-16T03:40:41;32.50;;;26.20;;
3274;SDS011;1649;53.672;10.064;2022-08-16T03:43:08;30.20;;;25.30;;
3274;SDS011;1649;53.672;10.064;2022-08-16T03:45:35;32.50;;;27.20;;
3274;SDS011;1649;53.672;10.064;2022-08-16T03:48:02;29.13;;;23.37;;
3274;SDS011;1649;53.672;10.064;2022-08-16T03:50:29;28.60;;;24.03;;
3274;SDS011;1649;53.672;10.064;2022-08-16T03:52:55;29.60;;;24.47;;
3274;SDS011;1649;53.672;10.064;2022-08-16T03:55:21;28.17;;;23.60;;
3274;SDS011;1649;53.672;10.064;2022-08-16T03:57:47;27.70;;;24.70;;
3274;SDS011;1649;53.672;10.064;2022-08-16T04:00:19;32.00;;;26.63;;
3274;SDS011;1649;53.672;10.064;2022-08-16T04:02:47;27.03;;;22.00;;
3274;SDS011;1649;53.672;10.064;2022-08-16T04:05:13;28.77;;;24.47;;
3274;SDS011;1649;53.672;10.064;2022-08-16T04:07:40;29.53;;;22.47;;
3274;SDS011;1649;53.672;10.064;2022-08-16T04:10:06;29.90;;;24.70;;
3274;SDS011;1649;53.672;10.064;2022-08-16T04:12:33;28.67;;;23.10;;
3274;SDS011;1649;53.672;10.064;2022-08-16T04:14:59;25.70;;;23.00;;
3274;SDS011;1649;53.672;10.064;2022-08-16T04:17:26;23.83;;;20.90;;
3274;SDS011;1649;53.672;10.064;2022-08-16T04:19:51;27.97;;;24.40;;
3274;SDS011;1649;53.672;10.064;2022-08-16T04:22:17;25.93;;;23.13;;
3274;SDS011;1649;53.672;10.064;2022-08-16T04:24:43;25.83;;;23.03;;
3274;SDS011;1649;53.672;10.064;2022-08-16T04:27:09;28.83;;;24.67;;
3274;SDS011;1649;53.672;10.064;2022-08-16T04:29:35;26.50;;;22.87;;
3274;SDS011;1649;53.672;10.064;2022-08-16T04:32:00;31.97;;;26.67;;
3274;SDS011;1649;53.672;10.064;2022-08-16T04:34:27;29.50;;;24.93;;
3274;SDS011;1649;53.672;10.064;2022-08-16T04:36:54;30.03;;;24.33;;
3274;SDS011;1649;53.672;10.064;2022-08-16T04:39:22;30.20;;;26.90;;
3274;SDS011;1649;53.672;10.064;2022-08-16T04:41:51;35.37;;;27.97;;
3274;SDS011;1649;53.672;10.064;2022-08-16T04:44:17;27.70;;;22.13;;
3274;SDS011;1649;53.672;10.064;2022-08-16T04:46:43;29.60;;;24.47;;
3274;SDS011;1649;53.672;10.064;2022-08-16T04:49:09;28.27;;;23.60;;
3274;SDS011;1649;53.672;10.064;2022-08-16T04:51:35;27.03;;;23.17;;
3274;SDS011;1649;53.672;10.064;2022-08-16T04:54:01;29.50;;;25.20;;
3274;SDS011;1649;53.672;10.064;2022-08-16T04:56:27;30.33;;;26.07;;
3274;SDS011;1649;53.672;10.064;2022-08-16T04:58:53;32.77;;;27.07;;
3274;SDS011;1649;53.672;10.064;2022-08-16T05:01:18;27.60;;;24.33;;
3274;SDS011;1649;53.672;10.064;2022-08-16T05:03:44;29.40;;;26.20;;
3274;SDS011;1649;53.672;10.064;2022-08-16T05:06:10;28.70;;;25.00;;
3274;SDS011;1649;53.672;10.064;2022-08-16T05:08:36;31.40;;;26.00;;
3274;SDS011;1649;53.672;10.064;2022-08-16T05:11:02;30.90;;;25.50;;
3274;SDS011;1649;53.672;10.064;2022-08-16T05:13:30;29.53;;;26.33;;
3274;SDS011;1649;53.672;10.064;2022-08-16T05:15:57;34.23;;;27.10;;
3274;SDS011;1649;53.672;10.064;2022-08-16T05:18:22;33.67;;;27.30;;
3274;SDS011;1649;53.672;10.064;2022-08-16T05:20:48;32.57;;;28.53;;
3274;SDS011;1649;53.672;10.064;2022-08-16T05:23:14;33.47;;;28.40;;
3274;SDS011;1649;53.672;10.064;2022-08-16T05:25:41;26.10;;;21.60;;
3274;SDS011;1649;53.672;10.064;2022-08-16T05:28:07;28.47;;;22.97;;
3274;SDS011;1649;53.672;10.064;2022-08-16T05:30:35;27.27;;;23.97;;
3274;SDS011;1649;53.672;10.064;2022-08-16T05:33:01;29.10;;;23.87;;
3274;SDS011;1649;53.672;10.064;2022-08-16T05:35:26;27.30;;;24.13;;
3274;SDS011;1649;53.672;10.064;2022-08-16T05:37:52;32.67;;;26.43;;
3274;SDS011;1649;53.672;10.064;2022-08-16T05:40:17;30.03;;;25.70;;
3274;SDS011;1649;53.672;10.064;2022-08-16T05:42:43;31.13;;;26.43;;
3274;SDS011;1649;53.672;10.064;2022-08-16T05:45:08;37.80;;;29.33;;
3274;SDS011;1649;53.672;10.064;2022-08-16T05:47:34;30.90;;;26.00;;
3274;SDS011;1649;53.672;10.064;2022-08-16T05:50:00;29.50;;;24.50;;
3274;SDS011;1649;53.672;10.064;2022-08-16T05:52:26;33.30;;;28.47;;
3274;SDS011;1649;53.672;10.064;2022-08-16T05:54:51;31.67;;;27.23;;
3274;SDS011;1649;53.672;10.064;2022-08-16T05:59:52;30.23;;;26.37;;
3274;SDS011;1649;53.672;10.064;2022-08-16T06:02:17;34.63;;;29.83;;
3274;SDS011;1649;53.672;10.064;2022-08-16T06:04:43;30.97;;;25.60;;
3274;SDS011;1649;53.672;10.064;2022-08-16T06:07:08;33.90;;;28.17;;
3274;SDS011;1649;53.672;10.064;2022-08-16T06:09:35;40.57;;;30.13;;
3274;SDS011;1649;53.672;10.064;2022-08-16T06:12:01;38.40;;;31.50;;
3274;SDS011;1649;53.672;10.064;2022-08-16T06:14:27;35.50;;;31.30;;
3274;SDS011;1649;53.672;10.064;2022-08-16T06:16:54;36.53;;;30.23;;
3274;SDS011;1649;53.672;10.064;2022-08-16T06:19:19;36.83;;;30.43;;
3274;SDS011;1649;53.672;10.064;2022-08-16T06:21:45;39.27;;;32.87;;
3274;SDS011;1649;53.672;10.064;2022-08-16T06:24:11;36.07;;;28.80;;
3274;SDS011;1649;53.672;10.064;2022-08-16T06:26:37;33.23;;;29.57;;
3274;SDS011;1649;53.672;10.064;2022-08-16T06:29:03;32.80;;;28.47;;
3274;SDS011;1649;53.672;10.064;2022-08-16T06:31:29;37.47;;;29.00;;
3274;SDS011;1649;53.672;10.064;2022-08-16T06:33:55;38.17;;;31.17;;
3274;SDS011;1649;53.672;10.064;2022-08-16T06:36:21;32.60;;;28.77;;
3274;SDS011;1649;53.672;10.064;2022-08-16T06:38:48;39.33;;;29.77;;
3274;SDS011;1649;53.672;10.064;2022-08-16T06:41:14;30.10;;;26.87;;
3274;SDS011;1649;53.672;10.064;2022-08-16T06:43:39;34.10;;;28.03;;
3274;SDS011;1649;53.672;10.064;2022-08-16T06:46:06;34.93;;;28.40;;
3274;SDS011;1649;53.672;10.064;2022-08-16T06:48:34;34.30;;;28.10;;
3274;SDS011;1649;53.672;10.064;2022-08-16T06:51:01;29.27;;;25.87;;
3274;SDS011;1649;53.672;10.064;2022-08-16T06:53:30;26.37;;;23.57;;
3274;SDS011;1649;53.672;10.064;2022-08-16T06:55:58;32.87;;;25.87;;
3274;SDS011;1649;53.672;10.064;2022-08-16T06:58:24;32.83;;;26.93;;
3274;SDS011;1649;53.672;10.064;2022-08-16T07:00:49;29.80;;;24.10;;
3274;SDS011;1649;53.672;10.064;2022-08-16T07:03:15;29.20;;;26.00;;
3274;SDS011;1649;53.672;10.064;2022-08-16T07:05:40;25.77;;;23.07;;
3274;SDS011;1649;53.672;10.064;2022-08-16T07:08:07;28.37;;;22.30;;
3274;SDS011;1649;53.672;10.064;2022-08-16T07:10:35;25.10;;;22.40;;
3274;SDS011;1649;53.672;10.064;2022-08-16T07:13:01;24.80;;;22.27;;
3274;SDS011;1649;53.672;10.064;2022-08-16T07:15:26;23.37;;;20.87;;
3274;SDS011;1649;53.672;10.064;2022-08-16T07:17:52;23.70;;;20.80;;
3274;SDS011;1649;53.672;10.064;2022-08-16T07:20:17;22.80;;;20.30;;
3274;SDS011;1649;53.672;10.064;2022-08-16T07:22:46;24.30;;;19.73;;
3274;SDS011;1649;53.672;10.064;2022-08-16T07:25:13;22.60;;;19.10;;
3274;SDS011;1649;53.672;10.064;2022-08-16T07:27:39;20.70;;;17.40;;
3274;SDS011;1649;53.672;10.064;2022-08-16T07:30:07;20.03;;;17.63;;
3274;SDS011;1649;53.672;10.064;2022-08-16T07:32:35;20.90;;;17.13;;
3274;SDS011;1649;53.672;10.064;2022-08-16T07:35:00;17.60;;;15.80;;
3274;SDS011;1649;53.672;10.064;2022-08-16T07:37:26;17.83;;;15.97;;
3274;SDS011;1649;53.672;10.064;2022-08-16T07:39:51;15.43;;;13.83;;
3274;SDS011;1649;53.672;10.064;2022-08-16T07:42:17;14.80;;;13.30;;
3274;SDS011;1649;53.672;10.064;2022-08-16T07:44:43;12.40;;;11.00;;
3274;SDS011;1649;53.672;10.064;2022-08-16T07:47:08;12.77;;;11.47;;
3274;SDS011;1649;53.672;10.064;2022-08-16T07:49:34;13.50;;;10.53;;
3274;SDS011;1649;53.672;10.064;2022-08-16T07:51:59;13.07;;;11.07;;
3274;SDS011;1649;53.672;10.064;2022-08-16T07:54:25;12.90;;;10.97;;
3274;SDS011;1649;53.672;10.064;2022-08-16T07:56:50;10.70;;;9.53;;
3274;SDS011;1649;53.672;10.064;2022-08-16T07:59:16;12.73;;;8.80;;
3274;SDS011;1649;53.672;10.064;2022-08-16T08:01:42;10.10;;;7.83;;
3274;SDS011;1649;53.672;10.064;2022-08-16T08:04:07;11.73;;;7.83;;
3274;SDS011;1649;53.672;10.064;2022-08-16T08:06:38;11.13;;;8.80;;
3274;SDS011;1649;53.672;10.064;2022-08-16T08:09:04;10.17;;;8.73;;
3274;SDS011;1649;53.672;10.064;2022-08-16T08:11:30;9.00;;;8.10;;
3274;SDS011;1649;53.672;10.064;2022-08-16T08:13:56;9.57;;;7.90;;
3274;SDS011;1649;53.672;10.064;2022-08-16T08:16:26;9.33;;;7.93;;
3274;SDS011;1649;53.672;10.064;2022-08-16T08:18:52;10.93;;;7.73;;
3274;SDS011;1649;53.672;10.064;2022-08-16T08:21:22;10.73;;;8.10;;
3274;SDS011;1649;53.672;10.064;2022-08-16T08:23:49;12.47;;;6.80;;
3274;SDS011;1649;53.672;10.064;2022-08-16T08:26:15;7.93;;;5.77;;
3274;SDS011;1649;53.672;10.064;2022-08-16T08:28:41;6.53;;;5.63;;
3274;SDS011;1649;53.672;10.064;2022-08-16T08:31:07;7.57;;;6.30;;
3274;SDS011;1649;53.672;10.064;2022-08-16T08:33:33;7.27;;;6.03;;
3274;SDS011;1649;53.672;10.064;2022-08-16T08:35:58;9.30;;;6.20;;
3274;SDS011;1649;53.672;10.064;2022-08-16T08:38:26;8.43;;;6.20;;
3274;SDS011;1649;53.672;10.064;2022-08-16T08:40:54;10.20;;;6.70;;
3274;SDS011;1649;53.672;10.064;2022-08-16T08:43:20;7.50;;;6.43;;
3274;SDS011;1649;53.672;10.064;2022-08-16T08:45:46;7.30;;;6.10;;
3274;SDS011;1649;53.672;10.064;2022-08-16T08:48:12;9.20;;;6.20;;
3274;SDS011;1649;53.672;10.064;2022-08-16T08:50:38;8.60;;;7.20;;
3274;SDS011;1649;53.672;10.064;2022-08-16T08:53:04;8.73;;;6.10;;
3274;SDS011;1649;53.672;10.064;2022-08-16T08:55:29;11.13;;;6.90;;
3274;SDS011;1649;53.672;10.064;2022-08-16T08:57:55;8.37;;;5.93;;
3274;SDS011;1649;53.672;10.064;2022-08-16T09:00:21;9.77;;;6.70;;
3274;SDS011;1649;53.672;10.064;2022-08-16T09:02:49;9.10;;;7.33;;
3274;SDS011;1649;53.672;10.064;2022-08-16T09:05:15;6.10;;;5.50;;
3274;SDS011;1649;53.672;10.064;2022-08-16T09:07:42;9.03;;;7.03;;
3274;SDS011;1649;53.672;10.064;2022-08-16T09:10:08;8.00;;;6.77;;
3274;SDS011;1649;53.672;10.064;2022-08-16T09:12:34;9.20;;;6.53;;
3274;SDS011;1649;53.672;10.064;2022-08-16T09:15:00;9.03;;;7.17;;
3274;SDS011;1649;53.672;10.064;2022-08-16T09:17:27;10.27;;;6.50;;
3274;SDS011;1649;53.672;10.064;2022-08-16T09:19:52;10.30;;;7.40;;
3274;SDS011;1649;53.672;10.064;2022-08-16T09:22:21;10.00;;;7.10;;
3274;SDS011;1649;53.672;10.064;2022-08-16T09:24:47;11.87;;;7.23;;
3274;SDS011;1649;53.672;10.064;2022-08-16T09:27:14;8.70;;;6.60;;
3274;SDS011;1649;53.672;10.064;2022-08-16T09:29:39;8.17;;;6.47;;
3274;SDS011;1649;53.672;10.064;2022-08-16T09:32:05;7.70;;;6.90;;
3274;SDS011;1649;53.672;10.064;2022-08-16T09:34:30;9.53;;;6.80;;
3274;SDS011;1649;53.672;10.064;2022-08-16T09:36:57;8.43;;;7.50;;
3274;SDS011;1649;53.672;10.064;2022-08-16T09:39:23;10.63;;;7.50;;
3274;SDS011;1649;53.672;10.064;2022-08-16T09:41:49;9.03;;;6.50;;
3274;SDS011;1649;53.672;10.064;2022-08-16T09:44:16;10.03;;;7.83;;
3274;SDS011;1649;53.672;10.064;2022-08-16T09:46:44;11.43;;;6.60;;
3274;SDS011;1649;53.672;10.064;2022-08-16T09:49:10;8.17;;;6.80;;
3274;SDS011;1649;53.672;10.064;2022-08-16T09:51:35;10.90;;;7.63;;
3274;SDS011;1649;53.672;10.064;2022-08-16T09:54:02;7.30;;;6.60;;
3274;SDS011;1649;53.672;10.064;2022-08-16T09:56:29;8.30;;;7.17;;
3274;SDS011;1649;53.672;10.064;2022-08-16T09:58:57;9.50;;;7.50;;
3274;SDS011;1649;53.672;10.064;2022-08-16T10:01:24;9.20;;;6.70;;
3274;SDS011;1649;53.672;10.064;2022-08-16T10:03:51;7.93;;;6.60;;
3274;SDS011;1649;53.672;10.064;2022-08-16T10:06:18;9.73;;;7.50;;
3274;SDS011;1649;53.672;10.064;2022-08-16T10:08:45;9.67;;;7.50;;
3274;SDS011;1649;53.672;10.064;2022-08-16T10:11:12;9.63;;;7.20;;
3274;SDS011;1649;53.672;10.064;2022-08-16T10:13:56;9.30;;;6.83;;
3274;SDS011;1649;53.672;10.064;2022-08-16T10:16:22;10.70;;;6.93;;
3274;SDS011;1649;53.672;10.064;2022-08-16T10:18:47;7.90;;;6.10;;
3274;SDS011;1649;53.672;10.064;2022-08-16T10:21:13;7.07;;;5.80;;
3274;SDS011;1649;53.672;10.064;2022-08-16T10:23:39;8.90;;;5.90;;
3274;SDS011;1649;53.672;10.064;2022-08-16T10:26:05;8.97;;;5.70;;
3274;SDS011;1649;53.672;10.064;2022-08-16T10:28:31;7.57;;;6.00;;
3274;SDS011;1649;53.672;10.064;2022-08-16T10:30:57;7.27;;;6.10;;
3274;SDS011;1649;53.672;10.064;2022-08-16T10:33:24;9.80;;;6.43;;
3274;SDS011;1649;53.672;10.064;2022-08-16T10:35:51;7.50;;;6.03;;
3274;SDS011;1649;53.672;10.064;2022-08-16T10:38:16;8.33;;;6.63;;
3274;SDS011;1649;53.672;10.064;2022-08-16T10:40:42;8.23;;;6.50;;
3274;SDS011;1649;53.672;10.064;2022-08-16T10:43:08;6.87;;;6.03;;
3274;SDS011;1649;53.672;10.064;2022-08-16T10:45:34;8.27;;;6.37;;
3274;SDS011;1649;53.672;10.064;2022-08-16T10:48:00;7.53;;;6.73;;
3274;SDS011;1649;53.672;10.064;2022-08-16T10:50:25;9.37;;;7.00;;
3274;SDS011;1649;53.672;10.064;2022-08-16T10:52:52;10.00;;;7.30;;
3274;SDS011;1649;53.672;10.064;2022-08-16T10:55:18;8.10;;;6.63;;
3274;SDS011;1649;53.672;10.064;2022-08-16T10:57:44;8.70;;;7.80;;
3274;SDS011;1649;53.672;10.064;2022-08-16T11:00:11;8.93;;;7.50;;
3274;SDS011;1649;53.672;10.064;2022-08-16T11:02:39;12.53;;;7.80;;
3274;SDS011;1649;53.672;10.064;2022-08-16T11:05:06;10.80;;;7.63;;
3274;SDS011;1649;53.672;10.064;2022-08-16T11:07:35;9.67;;;8.30;;
3274;SDS011;1649;53.672;10.064;2022-08-16T11:10:02;13.67;;;7.63;;
3274;SDS011;1649;53.672;10.064;2022-08-16T11:12:28;11.83;;;8.30;;
3274;SDS011;1649;53.672;10.064;2022-08-16T11:14:53;10.83;;;8.30;;
3274;SDS011;1649;53.672;10.064;2022-08-16T11:17:19;12.17;;;7.80;;
3274;SDS011;1649;53.672;10.064;2022-08-16T11:19:45;8.93;;;8.00;;
3274;SDS011;1649;53.672;10.064;2022-08-16T11:22:11;9.30;;;8.33;;
3274;SDS011;1649;53.672;10.064;2022-08-16T11:24:37;9.03;;;8.10;;
3274;SDS011;1649;53.672;10.064;2022-08-16T11:27:05;13.27;;;8.80;;
3274;SDS011;1649;53.672;10.064;2022-08-16T11:29:32;11.43;;;9.00;;
3274;SDS011;1649;53.672;10.064;2022-08-16T11:31:58;14.43;;;9.13;;
3274;SDS011;1649;53.672;10.064;2022-08-16T11:34:24;11.00;;;9.80;;
3274;SDS011;1649;53.672;10.064;2022-08-16T11:36:50;14.53;;;9.47;;
3274;SDS011;1649;53.672;10.064;2022-08-16T11:39:16;11.23;;;10.03;;
3274;SDS011;1649;53.672;10.064;2022-08-16T11:41:41;9.80;;;8.80;;
3274;SDS011;1649;53.672;10.064;2022-08-16T11:44:07;9.90;;;8.50;;
3274;SDS011;1649;53.672;10.064;2022-08-16T11:46:32;10.70;;;8.50;;
3274;SDS011;1649;53.672;10.064;2022-08-16T11:48:59;9.53;;;8.50;;
3274;SDS011;1649;53.672;10.064;2022-08-16T11:51:25;12.43;;;8.00;;
3274;SDS011;1649;53.672;10.064;2022-08-16T11:53:52;10.60;;;8.53;;
3274;SDS011;1649;53.672;10.064;2022-08-16T11:56:17;9.97;;;8.20;;
3274;SDS011;1649;53.672;10.064;2022-08-16T11:58:43;9.90;;;8.33;;
3274;SDS011;1649;53.672;10.064;2022-08-16T12:01:09;13.50;;;8.83;;
3274;SDS011;1649;53.672;10.064;2022-08-16T12:03:34;12.53;;;8.77;;
3274;SDS011;1649;53.672;10.064;2022-08-16T12:06:03;10.90;;;9.20;;
3274;SDS011;1649;53.672;10.064;2022-08-16T12:08:33;10.33;;;8.30;;
3274;SDS011;1649;53.672;10.064;2022-08-16T12:10:59;14.10;;;7.60;;
3274;SDS011;1649;53.672;10.064;2022-08-16T12:13:25;12.00;;;8.83;;
3274;SDS011;1649;53.672;10.064;2022-08-16T12:15:51;10.50;;;8.67;;
3274;SDS011;1649;53.672;10.064;2022-08-16T12:18:17;11.90;;;9.30;;
3274;SDS011;1649;53.672;10.064;2022-08-16T12:20:43;10.63;;;9.10;;
3274;SDS011;1649;53.672;10.064;2022-08-16T12:23:09;9.67;;;7.93;;
3274;SDS011;1649;53.672;10.064;2022-08-16T12:25:35;11.00;;;8.60;;
3274;SDS011;1649;53.672;10.064;2022-08-16T12:28:02;9.53;;;8.53;;
3274;SDS011;1649;53.672;10.064;2022-08-16T12:30:32;12.73;;;8.83;;
3274;SDS011;1649;53.672;10.064;2022-08-16T12:33:02;11.27;;;9.70;;
3274;SDS011;1649;53.672;10.064;2022-08-16T12:35:29;9.97;;;8.77;;
3274;SDS011;1649;53.672;10.064;2022-08-16T12:37:57;10.33;;;9.23;;
3274;SDS011;1649;53.672;10.064;2022-08-16T12:40:27;10.50;;;9.40;;
3274;SDS011;1649;53.672;10.064;2022-08-16T12:42:56;13.03;;;8.90;;
3274;SDS011;1649;53.672;10.064;2022-08-16T12:45:23;10.63;;;9.53;;
3274;SDS011;1649;53.672;10.064;2022-08-16T12:47:51;11.30;;;9.43;;
3274;SDS011;1649;53.672;10.064;2022-08-16T12:50:35;10.33;;;8.83;;
3274;SDS011;1649;53.672;10.064;2022-08-16T12:53:02;12.13;;;9.77;;
3274;SDS011;1649;53.672;10.064;2022-08-16T12:55:27;12.80;;;9.77;;
3274;SDS011;1649;53.672;10.064;2022-08-16T12:57:55;11.90;;;9.10;;
3274;SDS011;1649;53.672;10.064;2022-08-16T13:00:21;10.70;;;9.63;;
3274;SDS011;1649;53.672;10.064;2022-08-16T13:02:49;10.60;;;9.50;;
3274;SDS011;1649;53.672;10.064;2022-08-16T13:05:14;14.03;;;9.30;;
3274;SDS011;1649;53.672;10.064;2022-08-16T13:07:41;10.97;;;9.37;;
3274;SDS011;1649;53.672;10.064;2022-08-16T13:10:09;10.60;;;8.63;;
3274;SDS011;1649;53.672;10.064;2022-08-16T13:12:44;9.67;;;8.33;;
3274;SDS011;1649;53.672;10.064;2022-08-16T13:15:15;10.80;;;8.70;;
3274;SDS011;1649;53.672;10.064;2022-08-16T13:17:43;8.90;;;7.80;;
3274;SDS011;1649;53.672;10.064;2022-08-16T13:20:10;9.83;;;8.83;;
3274;SDS011;1649;53.672;10.064;2022-08-16T13:22:40;11.40;;;9.53;;
3274;SDS011;1649;53.672;10.064;2022-08-16T13:25:08;9.37;;;8.37;;
3274;SDS011;1649;53.672;10.064;2022-08-16T13:27:35;10.90;;;8.93;;
3274;SDS011;1649;53.672;10.064;2022-08-16T13:30:01;9.87;;;8.70;;
3274;SDS011;1649;53.672;10.064;2022-08-16T13:32:27;11.33;;;8.30;;
3274;SDS011;1649;53.672;10.064;2022-08-16T13:34:52;10.57;;;8.23;;
3274;SDS011;1649;53.672;10.064;2022-08-16T13:37:18;9.47;;;8.07;;
3274;SDS011;1649;53.672;10.064;2022-08-16T13:39:43;10.47;;;7.47;;
3274;SDS011;1649;53.672;10.064;2022-08-16T13:42:09;7.93;;;6.87;;
3274;SDS011;1649;53.672;10.064;2022-08-16T13:44:35;7.97;;;6.63;;
3274;SDS011;1649;53.672;10.064;2022-08-16T13:47:02;7.43;;;6.20;;
3274;SDS011;1649;53.672;10.064;2022-08-16T13:49:27;8.07;;;6.33;;
3274;SDS011;1649;53.672;10.064;2022-08-16T13:51:53;8.50;;;5.93;;
3274;SDS011;1649;53.672;10.064;2022-08-16T13:54:18;9.23;;;6.40;;
3274;SDS011;1649;53.672;10.064;2022-08-16T13:56:44;9.57;;;6.70;;
3274;SDS011;1649;53.672;10.064;2022-08-16T13:59:10;8.53;;;6.10;;
3274;SDS011;1649;53.672;10.064;2022-08-16T14:01:37;12.33;;;6.67;;
3274;SDS011;1649;53.672;10.064;2022-08-16T14:04:04;7.20;;;6.40;;
3274;SDS011;1649;53.672;10.064;2022-08-16T14:06:29;8.00;;;6.20;;
3274;SDS011;1649;53.672;10.064;2022-08-16T14:08:55;8.70;;;7.00;;
3274;SDS011;1649;53.672;10.064;2022-08-16T14:11:21;10.87;;;7.00;;
3274;SDS011;1649;53.672;10.064;2022-08-16T14:13:47;8.90;;;7.23;;
3274;SDS011;1649;53.672;10.064;2022-08-16T14:16:12;7.80;;;7.00;;
3274;SDS011;1649;53.672;10.064;2022-08-16T14:18:38;9.43;;;6.60;;
3274;SDS011;1649;53.672;10.064;2022-08-16T14:21:04;7.60;;;6.23;;
3274;SDS011;1649;53.672;10.064;2022-08-16T14:23:30;10.10;;;6.37;;
3274;SDS011;1649;53.672;10.064;2022-08-16T14:25:55;8.10;;;6.50;;
3274;SDS011;1649;53.672;10.064;2022-08-16T14:28:21;8.97;;;6.10;;
3274;SDS011;1649;53.672;10.064;2022-08-16T14:30:47;10.00;;;6.80;;
3274;SDS011;1649;53.672;10.064;2022-08-16T14:33:13;9.20;;;6.50;;
3274;SDS011;1649;53.672;10.064;2022-08-16T14:35:39;8.33;;;6.40;;
3274;SDS011;1649;53.672;10.064;2022-08-16T14:38:05;8.70;;;6.80;;
3274;SDS011;1649;53.672;10.064;2022-08-16T14:40:31;8.03;;;6.37;;
3274;SDS011;1649;53.672;10.064;2022-08-16T14:42:56;8.23;;;6.97;;